createdAt,value
2022-10-11T00:02:07.231Z,2.58
2022-10-11T00:04:33.990Z,2.38
2022-10-11T00:07:00.894Z,2.03
2022-10-11T00:09:27.679Z,2.30
2022-10-11T00:11:57.319Z,2.10
2022-10-11T00:14:25.744Z,2.55
2022-10-11T00:16:52.681Z,2.08
2022-10-11T00:19:19.950Z,1.90
2022-10-11T00:21:46.877Z,2.53
2022-10-11T00:24:15.972Z,2.42
2022-10-11T00:26:46.549Z,2.65
2022-10-11T00:29:14.356Z,2.28
2022-10-11T00:31:41.132Z,2.28
2022-10-11T00:34:08.422Z,3.33
2022-10-11T00:36:35.187Z,2.78
2022-10-11T00:39:02.402Z,2.40
2022-10-11T00:41:29.301Z,2.90
2022-10-11T00:44:09.507Z,2.45
2022-10-11T00:46:36.918Z,2.80
2022-10-11T00:49:15.689Z,2.28
2022-10-11T00:52:03.195Z,2.72
2022-10-11T00:54:33.806Z,2.97
2022-10-11T00:57:05.434Z,2.80
2022-10-11T00:59:41.550Z,2.90
2022-10-11T01:02:09.967Z,2.80
2022-10-11T01:04:37.139Z,2.80
2022-10-11T01:07:03.996Z,3.03
2022-10-11T01:09:31.605Z,3.20
2022-10-11T01:12:01.410Z,2.95
2022-10-11T01:15:12.175Z,3.15
2022-10-11T01:17:56.869Z,2.92
2022-10-11T01:20:43.811Z,3.78
2022-10-11T01:23:28.716Z,3.30
2022-10-11T01:26:24.215Z,3.47
2022-10-11T01:29:16.191Z,3.58
2022-10-11T01:32:09.153Z,3.45
2022-10-11T01:34:56.551Z,3.80
2022-10-11T01:37:30.127Z,3.22
2022-10-11T01:40:11.387Z,3.40
2022-10-11T01:42:40.247Z,3.13
2022-10-11T01:45:15.029Z,3.38
2022-10-11T01:47:42.571Z,3.38
2022-10-11T01:50:36.866Z,3.30
2022-10-11T01:53:35.740Z,3.30
2022-10-11T01:56:14.250Z,2.97
2022-10-11T01:58:49.714Z,3.08
2022-10-11T02:01:43.694Z,2.80
2022-10-11T02:04:25.603Z,3.22
2022-10-11T02:07:12.812Z,3.33
2022-10-11T02:09:56.180Z,2.95
2022-10-11T02:12:34.164Z,3.67
2022-10-11T02:15:03.889Z,3.08
2022-10-11T02:17:35.709Z,3.13
2022-10-11T02:20:08.730Z,3.45
2022-10-11T02:22:38.681Z,3.53
2022-10-11T02:25:10.596Z,3.42
2022-10-11T02:27:40.926Z,3.33
2022-10-11T02:30:09.512Z,3.35
2022-10-11T02:32:40.083Z,3.60
2022-10-11T02:35:08.142Z,3.10
2022-10-11T02:37:57.652Z,3.53
2022-10-11T02:40:37.520Z,3.92
2022-10-11T02:43:25.493Z,3.55
2022-10-11T02:45:59.987Z,3.00
2022-10-11T02:48:29.341Z,3.38
2022-10-11T02:50:57.720Z,3.30
2022-10-11T02:53:25.889Z,2.60
2022-10-11T02:55:54.568Z,3.22
2022-10-11T02:58:22.987Z,2.67
2022-10-11T03:00:49.785Z,3.17
2022-10-11T03:03:16.572Z,3.25
2022-10-11T03:05:43.936Z,3.10
2022-10-11T03:08:22.510Z,2.83
2022-10-11T03:10:49.239Z,3.17
2022-10-11T03:13:18.389Z,3.00
2022-10-11T03:16:02.341Z,3.17
2022-10-11T03:18:30.831Z,3.08
2022-10-11T03:20:57.601Z,3.40
2022-10-11T03:23:24.354Z,3.20
2022-10-11T03:25:52.016Z,3.17
2022-10-11T03:28:19.579Z,2.90
2022-10-11T03:30:50.050Z,3.30
2022-10-11T03:33:17.584Z,3.10
2022-10-11T03:35:48.477Z,2.63
2022-10-11T03:38:18.707Z,2.70
2022-10-11T03:40:45.649Z,2.90
2022-10-11T03:43:13.101Z,2.83
2022-10-11T03:45:42.245Z,2.83
2022-10-11T03:48:09.686Z,2.63
2022-10-11T03:50:38.991Z,2.95
2022-10-11T03:53:07.040Z,3.13
2022-10-11T03:55:33.939Z,2.50
2022-10-11T03:58:00.759Z,2.50
2022-10-11T04:00:27.567Z,3.08
2022-10-11T04:02:54.327Z,2.97
2022-10-11T04:05:21.229Z,2.65
2022-10-11T04:07:48.172Z,2.67
2022-10-11T04:10:15.012Z,2.63
2022-10-11T04:12:41.885Z,2.72
2022-10-11T04:15:09.026Z,2.40
2022-10-11T04:17:35.775Z,2.70
2022-10-11T04:20:02.705Z,2.63
2022-10-11T04:22:31.785Z,3.33
2022-10-11T04:24:58.713Z,3.05
2022-10-11T04:27:28.361Z,3.42
2022-10-11T04:29:55.175Z,3.50
2022-10-11T04:32:22.181Z,3.63
2022-10-11T04:34:48.960Z,3.83
2022-10-11T04:37:15.768Z,3.63
2022-10-11T04:39:42.529Z,4.43
2022-10-11T04:42:09.497Z,4.05
2022-10-11T04:44:36.290Z,3.47
2022-10-11T04:47:03.159Z,3.50
2022-10-11T04:49:30.071Z,3.63
2022-10-11T04:51:57.073Z,3.60
2022-10-11T04:54:23.980Z,3.67
2022-10-11T04:56:50.788Z,3.28
2022-10-11T04:59:17.545Z,3.47
2022-10-11T05:01:44.536Z,3.80
2022-10-11T05:04:11.437Z,3.28
2022-10-11T05:06:38.190Z,3.33
2022-10-11T05:09:04.939Z,3.47
2022-10-11T05:11:31.770Z,3.00
2022-10-11T05:13:58.505Z,3.78
2022-10-11T05:16:25.400Z,3.40
2022-10-11T05:18:52.122Z,3.20
2022-10-11T05:21:27.173Z,3.30
2022-10-11T05:23:56.315Z,3.53
2022-10-11T05:26:25.160Z,3.25
2022-10-11T05:28:52.802Z,3.40
2022-10-11T05:31:20.337Z,3.53
2022-10-11T05:33:47.405Z,2.90
2022-10-11T05:36:14.524Z,3.35
2022-10-11T05:38:41.639Z,3.50
2022-10-11T05:41:09.258Z,3.40
2022-10-11T05:43:36.154Z,3.17
2022-10-11T05:46:03.338Z,3.47
2022-10-11T05:48:30.393Z,3.20
2022-10-11T05:51:02.949Z,3.40
2022-10-11T05:53:30.574Z,3.20
2022-10-11T05:55:58.086Z,3.10
2022-10-11T05:58:25.100Z,3.33
2022-10-11T06:00:52.174Z,3.40
2022-10-11T06:03:20.980Z,3.03
2022-10-11T06:05:47.990Z,3.40
2022-10-11T06:08:15.784Z,3.20
2022-10-11T06:10:42.633Z,3.45
2022-10-11T06:13:09.837Z,3.67
2022-10-11T06:15:39.464Z,3.55
2022-10-11T06:18:06.239Z,3.28
2022-10-11T06:20:33.085Z,3.42
2022-10-11T06:22:59.898Z,3.97
2022-10-11T06:25:26.742Z,3.85
2022-10-11T06:27:53.497Z,3.55
2022-10-11T06:30:20.248Z,3.20
2022-10-11T06:32:47.003Z,3.63
2022-10-11T06:35:13.825Z,3.58
2022-10-11T06:37:40.619Z,3.42
2022-10-11T06:40:07.748Z,3.40
2022-10-11T06:42:34.477Z,3.83
2022-10-11T06:45:01.252Z,3.60
2022-10-11T06:47:28.018Z,3.75
2022-10-11T06:49:54.852Z,4.30
2022-10-11T06:52:21.588Z,3.20
2022-10-11T06:54:48.385Z,3.97
2022-10-11T06:57:15.181Z,3.72
2022-10-11T06:59:42.118Z,3.67
2022-10-11T07:02:10.047Z,3.78
2022-10-11T07:04:36.867Z,4.00
2022-10-11T07:07:03.599Z,4.00
2022-10-11T07:09:30.881Z,3.67
2022-10-11T07:11:57.651Z,3.67
2022-10-11T07:14:24.420Z,3.67
2022-10-11T07:16:51.200Z,3.67
2022-10-11T07:19:17.985Z,3.55
2022-10-11T07:21:44.747Z,3.70
2022-10-11T07:24:11.594Z,3.80
2022-10-11T07:26:39.326Z,3.47
2022-10-11T07:29:10.610Z,3.50
2022-10-11T07:31:40.043Z,3.78
2022-10-11T07:34:07.455Z,3.95
2022-10-11T07:36:34.322Z,3.53
2022-10-11T07:39:02.947Z,3.55
2022-10-11T07:41:29.758Z,4.07
2022-10-11T07:43:56.606Z,4.15
2022-10-11T07:46:23.476Z,3.75
2022-10-11T07:48:50.301Z,3.50
2022-10-11T07:51:22.305Z,3.53
2022-10-11T07:53:51.946Z,3.17
2022-10-11T07:56:24.803Z,3.63
2022-10-11T07:58:53.892Z,3.13
2022-10-11T08:01:21.618Z,3.28
2022-10-11T08:03:49.165Z,3.42
2022-10-11T08:06:19.936Z,3.13
2022-10-11T08:08:47.176Z,3.15
2022-10-11T08:11:23.537Z,3.38
2022-10-11T08:13:50.459Z,3.38
2022-10-11T08:16:17.282Z,3.47
2022-10-11T08:18:44.274Z,3.55
2022-10-11T08:21:13.137Z,3.42
2022-10-11T08:23:40.296Z,3.78
2022-10-11T08:26:08.305Z,3.15
2022-10-11T08:28:54.085Z,3.50
2022-10-11T08:31:21.319Z,3.80
2022-10-11T08:33:48.081Z,3.85
2022-10-11T08:36:14.899Z,3.88
2022-10-11T08:38:42.126Z,3.33
2022-10-11T08:41:28.702Z,3.65
2022-10-11T08:46:30.894Z,3.85
2022-10-11T08:49:00.109Z,3.45
2022-10-11T08:51:45.798Z,4.07
2022-10-11T08:54:49.503Z,3.83
2022-10-11T08:57:21.997Z,3.50
2022-10-11T09:00:13.640Z,3.45
2022-10-11T09:03:09.301Z,3.40
2022-10-11T09:05:57.408Z,3.83
2022-10-11T09:08:39.152Z,3.58
2022-10-11T09:11:17.620Z,3.20
2022-10-11T09:14:21.824Z,3.45
2022-10-11T09:16:57.606Z,3.53
2022-10-11T09:19:24.335Z,3.15
2022-10-11T09:22:20.260Z,3.10
2022-10-11T09:25:05.710Z,3.20
2022-10-11T09:28:01.368Z,3.67
2022-10-11T09:30:23.636Z,3.17
2022-10-11T09:33:08.969Z,3.45
2022-10-11T09:35:56.843Z,3.20
2022-10-11T09:38:54.289Z,3.03
2022-10-11T09:41:45.530Z,3.38
2022-10-11T09:44:26.055Z,2.85
2022-10-11T09:46:57.453Z,3.00
2022-10-11T09:49:31.080Z,2.83
2022-10-11T09:52:00.797Z,3.13
2022-10-11T09:54:42.552Z,3.67
2022-10-11T09:57:30.559Z,3.50
2022-10-11T10:00:21.419Z,2.78
2022-10-11T10:02:49.529Z,3.20
2022-10-11T10:05:20.045Z,2.92
2022-10-11T10:08:10.083Z,3.75
2022-10-11T10:11:08.896Z,3.10
2022-10-11T10:13:35.587Z,2.80
2022-10-11T10:16:04.281Z,2.95
2022-10-11T10:18:37.485Z,2.90
2022-10-11T10:21:08.291Z,3.03
2022-10-11T10:23:37.260Z,2.63
2022-10-11T10:26:19.847Z,2.50
2022-10-11T10:29:10.836Z,2.65
2022-10-11T10:32:12.925Z,2.45
2022-10-11T10:34:48.905Z,2.72
2022-10-11T10:37:29.333Z,2.63
2022-10-11T10:40:09.694Z,2.47
2022-10-11T10:42:37.669Z,2.58
2022-10-11T10:45:12.139Z,2.35
2022-10-11T10:48:04.141Z,2.67
2022-10-11T10:50:48.535Z,2.40
2022-10-11T10:53:50.784Z,2.70
2022-10-11T10:56:34.540Z,2.70
2022-10-11T10:59:30.510Z,2.35
2022-10-11T11:02:39.169Z,2.72
2022-10-11T11:05:12.388Z,2.70
2022-10-11T11:07:58.596Z,3.15
2022-10-11T11:10:36.765Z,2.85
2022-10-11T11:13:19.268Z,2.67
2022-10-11T11:15:48.817Z,2.40
2022-10-11T11:18:25.841Z,2.70
2022-10-11T11:21:24.046Z,2.50
2022-10-11T11:24:13.924Z,2.25
2022-10-11T11:26:56.270Z,2.90
2022-10-11T11:29:43.559Z,3.03
2022-10-11T11:32:31.249Z,2.72
2022-10-11T11:35:03.748Z,2.42
2022-10-11T11:37:41.543Z,2.63
2022-10-11T11:40:21.724Z,2.85
2022-10-11T11:42:52.487Z,2.55
2022-10-11T11:45:27.791Z,2.70
2022-10-11T11:48:02.158Z,2.65
2022-10-11T11:50:37.615Z,2.40
2022-10-11T11:53:14.465Z,2.60
2022-10-11T11:55:51.922Z,2.65
2022-10-11T11:58:30.300Z,2.65
2022-10-11T12:01:03.916Z,2.83
2022-10-11T12:03:41.631Z,2.28
2022-10-11T12:06:17.228Z,2.90
2022-10-11T12:09:06.662Z,2.47
2022-10-11T12:11:55.580Z,2.60
2022-10-11T12:14:34.236Z,2.55
2022-10-11T12:17:22.534Z,2.72
2022-10-11T12:20:08.177Z,2.55
2022-10-11T12:22:37.409Z,2.53
2022-10-11T12:25:28.747Z,3.15
2022-10-11T12:28:20.360Z,2.67
2022-10-11T12:30:47.264Z,2.50
2022-10-11T12:33:17.343Z,2.63
2022-10-11T12:35:55.828Z,2.50
2022-10-11T12:38:34.022Z,2.63
2022-10-11T12:41:10.042Z,2.63
2022-10-11T12:43:57.026Z,2.97
2022-10-11T12:46:31.065Z,2.50
2022-10-11T12:49:18.917Z,2.67
2022-10-11T12:52:02.558Z,3.13
2022-10-11T12:54:36.848Z,2.92
2022-10-11T12:57:28.644Z,2.70
2022-10-11T13:00:06.751Z,2.85
2022-10-11T13:02:42.551Z,2.70
2022-10-11T13:05:31.248Z,2.97
2022-10-11T13:08:02.460Z,2.88
2022-10-11T13:10:43.885Z,3.10
2022-10-11T13:13:32.960Z,2.60
2022-10-11T13:16:08.658Z,2.65
2022-10-11T13:18:35.934Z,2.83
2022-10-11T13:21:02.844Z,2.58
2022-10-11T13:23:38.069Z,2.97
2022-10-11T13:26:05.304Z,2.92
2022-10-11T13:28:36.329Z,2.70
2022-10-11T13:31:04.619Z,2.83
2022-10-11T13:33:35.536Z,2.60
2022-10-11T13:36:05.372Z,2.80
2022-10-11T13:38:35.350Z,2.67
2022-10-11T13:41:06.754Z,3.20
2022-10-11T13:43:34.767Z,3.17
2022-10-11T13:46:05.026Z,3.13
2022-10-11T13:48:38.685Z,2.70
2022-10-11T13:51:27.823Z,2.97
2022-10-11T13:54:13.928Z,3.17
2022-10-11T13:56:51.369Z,2.97
2022-10-11T13:59:24.061Z,2.60
2022-10-11T14:02:00.142Z,2.63
2022-10-11T14:04:29.945Z,2.85
2022-10-11T14:07:02.536Z,2.78
2022-10-11T14:09:34.568Z,2.42
2022-10-11T14:12:50.410Z,2.80
2022-10-11T14:15:32.096Z,3.00
2022-10-11T14:18:01.101Z,2.53
2022-10-11T14:20:40.149Z,2.78
2022-10-11T14:23:07.237Z,2.78
2022-10-11T14:25:34.460Z,3.15
2022-10-11T14:28:01.459Z,3.20
2022-10-11T14:30:31.687Z,3.35
2022-10-11T14:33:01.619Z,3.47
2022-10-11T14:35:32.374Z,3.40
2022-10-11T14:37:59.662Z,4.05
2022-10-11T14:40:29.208Z,2.95
2022-10-11T14:42:56.909Z,3.28
2022-10-11T14:45:24.313Z,3.45
2022-10-11T14:47:51.801Z,3.75
2022-10-11T14:50:35.287Z,3.70
2022-10-11T14:53:03.055Z,3.15
2022-10-11T14:55:31.090Z,3.63
2022-10-11T14:57:58.173Z,3.58
2022-10-11T15:00:30.069Z,3.83
2022-10-11T15:02:57.951Z,3.75
2022-10-11T15:05:32.699Z,3.88
2022-10-11T15:08:01.086Z,3.63
2022-10-11T15:10:36.964Z,3.63
2022-10-11T15:13:04.994Z,3.67
2022-10-11T15:15:35.278Z,3.72
2022-10-11T15:18:05.100Z,3.60
2022-10-11T15:20:41.710Z,4.28
2022-10-11T15:23:09.921Z,4.18
2022-10-11T15:25:38.010Z,4.63
2022-10-11T15:28:05.876Z,3.65
2022-10-11T15:30:40.977Z,3.65
2022-10-11T15:33:09.031Z,4.30
2022-10-11T15:35:35.917Z,4.18
2022-10-11T15:38:02.802Z,4.32
2022-10-11T15:40:36.849Z,3.80
2022-10-11T15:43:04.386Z,3.92
2022-10-11T15:45:31.437Z,4.10
2022-10-11T15:47:58.434Z,4.10
2022-10-11T15:50:34.631Z,4.18
2022-10-11T15:53:10.868Z,3.83
2022-10-11T15:58:14.677Z,4.05
2022-10-11T16:00:43.268Z,4.35
2022-10-11T16:03:12.938Z,4.13
2022-10-11T16:05:40.888Z,3.92
2022-10-11T16:08:08.237Z,4.03
2022-10-11T16:10:35.630Z,3.78
2022-10-11T16:13:02.512Z,4.30
2022-10-11T16:15:29.423Z,4.03
2022-10-11T16:17:56.247Z,3.80
2022-10-11T16:20:24.691Z,3.85
2022-10-11T16:22:53.672Z,4.38
2022-10-11T16:25:21.631Z,4.00
2022-10-11T16:27:49.433Z,4.10
2022-10-11T16:30:20.165Z,4.07
2022-10-11T16:32:47.191Z,4.15
2022-10-11T16:35:15.369Z,4.20
2022-10-11T16:37:42.758Z,4.68
2022-10-11T16:40:11.480Z,3.70
2022-10-11T16:42:39.458Z,3.80
2022-10-11T16:45:06.790Z,4.18
2022-10-11T16:47:33.783Z,3.58
2022-10-11T16:50:00.821Z,3.90
2022-10-11T16:52:27.716Z,4.18
2022-10-11T16:54:55.976Z,3.50
2022-10-11T16:57:23.873Z,4.15
2022-10-11T16:59:51.692Z,3.83
2022-10-11T17:02:27.619Z,3.97
2022-10-11T17:04:58.713Z,3.80
2022-10-11T17:07:25.920Z,3.70
2022-10-11T17:09:53.259Z,3.85
2022-10-11T17:12:23.194Z,4.32
2022-10-11T17:14:50.627Z,3.90
2022-10-11T17:17:20.480Z,4.55
2022-10-11T17:19:47.914Z,4.00
2022-10-11T17:22:19.667Z,3.83
2022-10-11T17:24:46.583Z,4.07
2022-10-11T17:27:14.015Z,4.18
2022-10-11T17:29:40.946Z,3.85
2022-10-11T17:32:07.841Z,4.40
2022-10-11T17:34:34.806Z,4.70
2022-10-11T17:37:01.609Z,4.65
2022-10-11T17:39:28.636Z,5.50
2022-10-11T17:41:55.470Z,5.72
2022-10-11T17:44:22.497Z,6.05
2022-10-11T17:46:49.446Z,6.30
2022-10-11T17:49:16.905Z,7.07
2022-10-11T17:51:43.962Z,7.07
2022-10-11T17:54:12.824Z,7.25
2022-10-11T17:56:41.662Z,7.07
2022-10-11T17:59:14.800Z,6.80
2022-10-11T18:01:41.619Z,6.82
2022-10-11T18:04:13.422Z,6.85
2022-10-11T18:06:40.203Z,6.45
2022-10-11T18:09:07.556Z,6.22
2022-10-11T18:11:34.794Z,6.43
2022-10-11T18:14:02.022Z,7.78
2022-10-11T18:16:30.934Z,8.25
2022-10-11T18:18:58.481Z,8.75
2022-10-11T18:21:31.206Z,9.57
2022-10-11T18:24:02.811Z,8.02
2022-10-11T18:26:30.890Z,8.48
2022-10-11T18:28:58.645Z,8.50
2022-10-11T18:31:28.525Z,7.93
2022-10-11T18:33:55.384Z,9.35
2022-10-11T18:36:25.489Z,8.13
2022-10-11T18:38:57.587Z,7.75
2022-10-11T18:41:30.528Z,7.55
2022-10-11T18:44:00.101Z,7.57
2022-10-11T18:46:27.945Z,7.43
2022-10-11T18:48:56.784Z,6.97
2022-10-11T18:51:25.987Z,6.82
2022-10-11T18:53:53.615Z,6.05
2022-10-11T18:56:22.959Z,6.47
2022-10-11T18:58:51.217Z,6.30
2022-10-11T19:01:21.253Z,5.60
2022-10-11T19:03:52.369Z,6.65
2022-10-11T19:06:22.107Z,5.55
2022-10-11T19:08:55.314Z,5.78
2022-10-11T19:11:25.137Z,6.05
2022-10-11T19:14:00.408Z,5.90
2022-10-11T19:16:32.239Z,5.77
2022-10-11T19:18:59.436Z,6.03
2022-10-11T19:21:26.688Z,5.60
2022-10-11T19:23:55.603Z,5.72
2022-10-11T19:26:29.165Z,5.63
2022-10-11T19:29:14.894Z,6.15
2022-10-11T19:31:44.587Z,5.47
2022-10-11T19:34:12.040Z,5.97
2022-10-11T19:36:39.155Z,5.28
2022-10-11T19:39:06.376Z,5.35
2022-10-11T19:41:33.283Z,5.22
2022-10-11T19:44:00.211Z,5.43
2022-10-11T19:46:49.963Z,5.43
2022-10-11T19:49:17.402Z,4.97
2022-10-11T19:51:44.640Z,5.57
2022-10-11T19:54:13.659Z,4.72
2022-10-11T19:56:40.759Z,5.63
2022-10-11T19:59:07.641Z,4.90
2022-10-11T20:01:36.236Z,4.85
2022-10-11T20:04:08.890Z,5.38
2022-10-11T20:06:39.372Z,5.43
2022-10-11T20:09:28.455Z,5.18
2022-10-11T20:11:54.696Z,5.38
2022-10-11T20:14:21.510Z,5.50
2022-10-11T20:16:50.529Z,4.90
2022-10-11T20:19:17.382Z,4.70
2022-10-11T20:21:44.923Z,5.97
2022-10-11T20:24:11.780Z,4.80
2022-10-11T20:26:39.200Z,5.13
2022-10-11T20:29:06.456Z,4.25
2022-10-11T20:31:34.707Z,4.32
2022-10-11T20:34:04.893Z,4.97
2022-10-11T20:36:33.041Z,5.07
2022-10-11T20:39:00.403Z,4.75
2022-10-11T20:41:32.705Z,5.13
2022-10-11T20:44:01.107Z,5.13
2022-10-11T20:46:31.434Z,5.40
2022-10-11T20:49:03.429Z,4.75
2022-10-11T20:51:31.969Z,6.00
2022-10-11T20:53:59.464Z,5.53
2022-10-11T20:56:26.923Z,5.22
2022-10-11T20:58:55.640Z,5.60
2022-10-11T21:01:26.305Z,5.45
2022-10-11T21:03:53.883Z,5.53
2022-10-11T21:06:20.779Z,5.20
2022-10-11T21:08:47.547Z,5.22
2022-10-11T21:11:14.409Z,4.97
2022-10-11T21:13:41.176Z,5.28
2022-10-11T21:16:13.091Z,5.88
2022-10-11T21:18:40.306Z,5.63
2022-10-11T21:21:14.366Z,5.70
2022-10-11T21:23:42.046Z,6.32
2022-10-11T21:26:12.807Z,6.45
2022-10-11T21:28:41.165Z,6.10
2022-10-11T21:31:13.359Z,5.88
2022-10-11T21:33:41.639Z,6.53
2022-10-11T21:36:11.067Z,6.10
2022-10-11T21:38:37.968Z,5.97
2022-10-11T21:41:08.169Z,6.25
2022-10-11T21:43:36.127Z,5.93
2022-10-11T21:47:01.275Z,5.80
2022-10-11T21:49:19.709Z,5.45
2022-10-11T21:51:46.573Z,5.43
2022-10-11T21:54:13.314Z,5.22
2022-10-11T21:56:40.169Z,4.97
2022-10-11T21:59:11.068Z,5.18
2022-10-11T22:01:40.222Z,4.80
2022-10-11T22:04:07.496Z,4.95
2022-10-11T22:06:34.631Z,4.88
2022-10-11T22:09:01.644Z,5.18
2022-10-11T22:11:29.358Z,5.20
2022-10-11T22:13:57.116Z,4.93
2022-10-11T22:16:23.950Z,5.30
2022-10-11T22:18:53.466Z,4.80
2022-10-11T22:21:22.742Z,4.82
2022-10-11T22:23:51.636Z,4.78
2022-10-11T22:26:25.003Z,4.65
2022-10-11T22:28:53.361Z,4.85
2022-10-11T22:31:21.015Z,4.40
2022-10-11T22:33:48.420Z,4.53
2022-10-11T22:36:19.277Z,4.80
2022-10-11T22:38:46.250Z,4.03
2022-10-11T22:41:13.282Z,4.93
2022-10-11T22:43:40.342Z,3.90
2022-10-11T22:46:07.601Z,4.85
2022-10-11T22:48:34.422Z,4.07
2022-10-11T22:51:01.326Z,4.32
2022-10-11T22:53:28.797Z,4.35
2022-10-11T22:55:55.533Z,4.05
2022-10-11T22:58:22.272Z,4.13
2022-10-11T23:00:49.139Z,3.83
2022-10-11T23:03:17.413Z,3.70
2022-10-11T23:05:44.275Z,4.22
2022-10-11T23:08:11.024Z,4.07
2022-10-11T23:10:40.786Z,4.38
2022-10-11T23:13:07.860Z,3.92
2022-10-11T23:15:34.606Z,4.50
2022-10-11T23:18:01.350Z,4.03
2022-10-11T23:20:28.188Z,4.38
2022-10-11T23:22:54.993Z,4.25
2022-10-11T23:25:21.727Z,3.92
2022-10-11T23:27:48.482Z,4.53
2022-10-11T23:30:15.277Z,4.55
2022-10-11T23:32:42.072Z,3.92
2022-10-11T23:35:09.061Z,4.05
2022-10-11T23:37:36.286Z,4.38
2022-10-11T23:40:04.522Z,3.80
2022-10-11T23:42:31.474Z,3.95
2022-10-11T23:44:58.224Z,4.18
2022-10-11T23:47:25.239Z,4.38
2022-10-11T23:49:51.997Z,4.05
2022-10-11T23:52:19.026Z,4.30
2022-10-11T23:54:45.779Z,4.00
2022-10-11T23:57:12.616Z,4.13
2022-10-11T23:59:39.343Z,4.13
